createdAt,value
2023-02-23T00:02:20.314Z,17.07
2023-02-23T00:04:48.430Z,9.53
2023-02-23T00:07:20.015Z,11.20
2023-02-23T00:09:47.505Z,9.40
2023-02-23T00:12:17.275Z,8.17
2023-02-23T00:14:44.991Z,9.27
2023-02-23T00:17:15.125Z,8.40
2023-02-23T00:19:46.089Z,10.60
2023-02-23T00:22:13.601Z,13.47
2023-02-23T00:24:42.617Z,13.53
2023-02-23T00:27:20.966Z,16.80
2023-02-23T00:29:52.904Z,12.20
2023-02-23T00:32:22.269Z,14.17
2023-02-23T00:34:51.901Z,14.77
2023-02-23T00:37:22.414Z,14.87
2023-02-23T00:39:50.444Z,13.27
2023-02-23T00:42:17.969Z,10.87
2023-02-23T00:44:47.590Z,9.57
2023-02-23T00:47:15.551Z,9.03
2023-02-23T00:49:45.033Z,8.20
2023-02-23T00:52:14.759Z,6.43
2023-02-23T00:54:43.380Z,7.93
2023-02-23T00:57:10.856Z,8.37
2023-02-23T00:59:38.406Z,7.03
2023-02-23T01:02:05.964Z,12.73
2023-02-23T01:04:33.444Z,9.40
2023-02-23T01:07:04.193Z,7.97
2023-02-23T01:09:32.129Z,8.27
2023-02-23T01:12:07.373Z,6.23
2023-02-23T01:14:35.695Z,6.77
2023-02-23T01:17:05.816Z,8.13
2023-02-23T01:19:34.234Z,9.20
2023-02-23T01:22:04.200Z,9.33
2023-02-23T01:24:31.775Z,8.20
2023-02-23T01:26:59.271Z,10.93
2023-02-23T01:29:27.857Z,9.43
2023-02-23T01:31:55.480Z,9.93
2023-02-23T01:34:25.141Z,11.83
2023-02-23T01:36:52.618Z,15.37
2023-02-23T01:39:21.587Z,10.67
2023-02-23T01:41:51.961Z,8.07
2023-02-23T01:44:19.415Z,7.33
2023-02-23T01:46:49.380Z,8.97
2023-02-23T01:49:25.730Z,17.20
2023-02-23T01:52:08.125Z,18.10
2023-02-23T01:54:41.631Z,16.17
2023-02-23T01:57:14.816Z,27.73
2023-02-23T01:59:49.208Z,23.67
2023-02-23T02:02:27.676Z,26.40
2023-02-23T02:04:59.617Z,31.27
2023-02-23T02:07:31.244Z,35.47
2023-02-23T02:10:12.200Z,40.37
2023-02-23T02:12:40.861Z,26.93
2023-02-23T02:15:17.141Z,12.17
2023-02-23T02:17:56.901Z,15.13
2023-02-23T02:21:05.091Z,15.03
2023-02-23T02:24:24.092Z,16.67
2023-02-23T02:27:19.431Z,14.43
2023-02-23T02:29:52.645Z,14.00
2023-02-23T02:32:39.567Z,10.17
2023-02-23T02:35:42.746Z,9.07
2023-02-23T02:38:24.982Z,13.00
2023-02-23T02:41:44.594Z,12.90
2023-02-23T02:44:19.752Z,11.67
2023-02-23T02:46:55.169Z,9.70
2023-02-23T02:49:41.209Z,8.20
2023-02-23T02:52:23.592Z,8.73
2023-02-23T02:55:04.216Z,9.27
2023-02-23T02:57:35.196Z,9.80
2023-02-23T03:00:21.300Z,9.50
2023-02-23T03:03:10.506Z,8.67
2023-02-23T03:06:08.437Z,7.17
2023-02-23T03:09:18.852Z,8.90
2023-02-23T03:12:26.644Z,8.70
2023-02-23T03:15:35.467Z,23.03
2023-02-23T03:19:17.276Z,21.03
2023-02-23T03:22:11.870Z,40.10
2023-02-23T03:25:18.285Z,29.70
2023-02-23T03:28:05.626Z,24.10
2023-02-23T03:31:22.068Z,23.33
2023-02-23T03:34:29.634Z,17.47
2023-02-23T03:37:48.736Z,15.07
2023-02-23T03:40:54.492Z,24.90
2023-02-23T03:43:59.777Z,19.77
2023-02-23T03:46:50.536Z,29.07
2023-02-23T03:49:39.779Z,39.53
2023-02-23T03:52:37.665Z,38.50
2023-02-23T03:55:37.090Z,46.80
2023-02-23T03:58:32.860Z,34.43
2023-02-23T04:01:22.301Z,25.10
2023-02-23T04:04:10.838Z,22.30
2023-02-23T04:07:04.869Z,27.03
2023-02-23T04:09:51.905Z,29.87
2023-02-23T04:13:08.879Z,29.47
2023-02-23T04:15:54.368Z,26.33
2023-02-23T04:18:28.937Z,63.27
2023-02-23T04:20:58.245Z,20.47
2023-02-23T04:23:27.724Z,16.53
2023-02-23T04:25:56.435Z,15.77
2023-02-23T04:28:27.640Z,18.23
2023-02-23T04:30:55.322Z,18.83
2023-02-23T04:33:25.023Z,27.47
2023-02-23T04:35:57.343Z,27.00
2023-02-23T04:38:25.829Z,29.37
2023-02-23T04:40:53.527Z,28.07
2023-02-23T04:43:21.010Z,29.40
2023-02-23T04:45:48.574Z,37.67
2023-02-23T04:48:36.064Z,42.60
2023-02-23T04:51:03.860Z,35.07
2023-02-23T04:53:31.369Z,43.70
2023-02-23T04:55:59.155Z,43.03
2023-02-23T04:58:27.288Z,36.97
2023-02-23T05:00:56.088Z,41.10
2023-02-23T05:03:23.650Z,32.93
2023-02-23T05:05:55.225Z,35.10
2023-02-23T05:08:22.694Z,30.83
2023-02-23T05:10:51.581Z,36.97
2023-02-23T05:13:20.634Z,32.53
2023-02-23T05:15:49.098Z,39.73
2023-02-23T05:18:16.649Z,42.53
2023-02-23T05:20:45.293Z,36.23
2023-02-23T05:23:13.560Z,31.80
2023-02-23T05:25:41.336Z,38.37
2023-02-23T05:28:11.861Z,35.10
2023-02-23T05:30:39.443Z,40.10
2023-02-23T05:33:07.429Z,46.37
2023-02-23T05:35:35.716Z,66.70
2023-02-23T05:38:03.189Z,72.57
2023-02-23T05:40:30.624Z,68.87
2023-02-23T05:43:01.586Z,48.07
2023-02-23T05:45:29.154Z,61.53
2023-02-23T05:47:58.317Z,50.23
2023-02-23T05:50:26.786Z,27.97
2023-02-23T05:52:54.313Z,45.87
2023-02-23T05:55:22.613Z,28.77
2023-02-23T05:57:50.825Z,26.97
2023-02-23T06:00:18.736Z,25.27
2023-02-23T06:02:46.323Z,28.40
2023-02-23T06:05:15.246Z,26.30
2023-02-23T06:07:42.669Z,33.40
2023-02-23T06:10:11.298Z,28.17
2023-02-23T06:12:38.708Z,36.93
2023-02-23T06:15:08.399Z,61.03
2023-02-23T06:17:36.648Z,60.53
2023-02-23T06:20:07.176Z,63.13
2023-02-23T06:22:34.878Z,48.50
2023-02-23T06:25:05.021Z,39.20
2023-02-23T06:27:32.649Z,41.57
2023-02-23T06:30:00.362Z,39.60
2023-02-23T06:32:27.932Z,40.03
2023-02-23T06:34:56.217Z,40.30
2023-02-23T06:37:25.113Z,13.23
2023-02-23T06:39:53.087Z,11.33
2023-02-23T06:42:20.926Z,21.13
2023-02-23T06:44:48.435Z,16.10
2023-02-23T06:47:15.926Z,11.20
2023-02-23T06:49:44.810Z,12.13
2023-02-23T06:52:14.357Z,14.63
2023-02-23T06:54:43.943Z,19.87
2023-02-23T06:57:15.107Z,13.57
2023-02-23T06:59:43.018Z,14.57
2023-02-23T07:02:15.906Z,16.93
2023-02-23T07:04:45.383Z,15.07
2023-02-23T07:07:17.120Z,13.30
2023-02-23T07:09:44.976Z,12.70
2023-02-23T07:12:13.998Z,20.00
2023-02-23T07:14:41.723Z,12.07
2023-02-23T07:17:11.579Z,12.27
2023-02-23T07:19:40.133Z,7.37
2023-02-23T07:22:07.611Z,10.17
2023-02-23T07:24:35.022Z,10.20
2023-02-23T07:27:03.028Z,9.47
2023-02-23T07:29:30.658Z,9.13
2023-02-23T07:31:58.496Z,8.20
2023-02-23T07:34:26.790Z,8.53
2023-02-23T07:36:54.310Z,6.47
2023-02-23T07:39:21.812Z,10.13
2023-02-23T07:41:49.317Z,9.27
2023-02-23T07:44:21.540Z,9.03
2023-02-23T07:46:50.366Z,8.93
2023-02-23T07:49:17.799Z,10.37
2023-02-23T07:51:45.563Z,10.07
2023-02-23T07:54:13.780Z,10.57
2023-02-23T07:56:42.459Z,10.40
2023-02-23T07:59:10.176Z,16.67
2023-02-23T08:01:37.625Z,11.23
2023-02-23T08:04:05.629Z,9.27
2023-02-23T08:06:33.231Z,8.80
2023-02-23T08:09:04.182Z,10.13
2023-02-23T08:11:32.038Z,6.50
2023-02-23T08:14:19.648Z,9.13
2023-02-23T08:16:47.205Z,10.93
2023-02-23T08:19:15.253Z,7.00
2023-02-23T08:21:43.780Z,5.00
2023-02-23T08:24:11.211Z,8.13
2023-02-23T08:26:38.788Z,7.83
2023-02-23T08:29:06.834Z,6.10
2023-02-23T08:31:35.202Z,14.37
2023-02-23T08:34:03.280Z,11.47
2023-02-23T08:36:30.786Z,13.00
2023-02-23T08:38:58.212Z,6.93
2023-02-23T08:41:26.269Z,9.87
2023-02-23T08:43:54.399Z,5.83
2023-02-23T08:46:22.274Z,9.40
2023-02-23T08:48:49.887Z,7.57
2023-02-23T08:51:17.736Z,6.53
2023-02-23T08:53:45.505Z,7.67
2023-02-23T08:56:13.377Z,9.50
2023-02-23T08:58:41.185Z,4.33
2023-02-23T09:01:18.606Z,8.83
2023-02-23T09:03:46.496Z,8.60
2023-02-23T09:06:19.050Z,7.33
2023-02-23T09:08:47.078Z,11.13
2023-02-23T09:11:14.485Z,10.10
2023-02-23T09:13:41.926Z,10.80
2023-02-23T09:16:10.873Z,6.13
2023-02-23T09:18:39.514Z,5.93
2023-02-23T09:21:18.778Z,5.57
2023-02-23T09:23:48.322Z,7.53
2023-02-23T09:26:18.065Z,7.70
2023-02-23T09:28:46.688Z,5.00
2023-02-23T09:31:19.012Z,8.07
2023-02-23T09:33:47.151Z,6.03
2023-02-23T09:36:24.925Z,7.20
2023-02-23T09:38:57.325Z,6.93
2023-02-23T09:41:53.258Z,16.63
2023-02-23T09:44:46.681Z,6.60
2023-02-23T09:47:55.060Z,6.27
2023-02-23T09:50:27.489Z,7.37
2023-02-23T09:53:24.241Z,6.50
2023-02-23T09:55:57.449Z,4.43
2023-02-23T09:58:34.040Z,7.53
2023-02-23T10:01:22.425Z,6.57
2023-02-23T10:04:08.198Z,7.23
2023-02-23T10:06:35.935Z,7.40
2023-02-23T10:09:41.749Z,6.13
2023-02-23T10:12:37.524Z,5.20
2023-02-23T10:15:29.623Z,6.27
2023-02-23T10:18:46.591Z,5.17
2023-02-23T10:21:38.816Z,5.20
2023-02-23T10:24:11.979Z,5.07
2023-02-23T10:26:47.919Z,8.63
2023-02-23T10:29:53.361Z,7.47
2023-02-23T10:32:39.196Z,4.97
2023-02-23T10:35:13.945Z,5.07
2023-02-23T10:37:41.506Z,5.90
2023-02-23T10:40:18.064Z,6.20
2023-02-23T10:42:45.647Z,6.03
2023-02-23T10:45:23.311Z,6.57
2023-02-23T10:48:07.947Z,5.87
2023-02-23T10:50:39.701Z,10.30
2023-02-23T10:53:37.721Z,5.07
2023-02-23T10:56:17.959Z,7.50
2023-02-23T10:58:57.841Z,5.83
2023-02-23T11:02:00.952Z,6.73
2023-02-23T11:04:35.421Z,6.83
2023-02-23T11:07:25.634Z,5.87
2023-02-23T11:09:53.292Z,6.27
2023-02-23T11:12:42.025Z,5.90
2023-02-23T11:15:49.132Z,7.53
2023-02-23T11:18:26.235Z,4.33
2023-02-23T11:20:54.773Z,4.67
2023-02-23T11:23:31.504Z,6.30
2023-02-23T11:26:23.055Z,7.17
2023-02-23T11:28:58.869Z,8.37
2023-02-23T11:31:35.164Z,6.63
2023-02-23T11:34:06.833Z,8.23
2023-02-23T11:36:37.276Z,7.90
2023-02-23T11:39:23.517Z,8.67
2023-02-23T11:42:17.488Z,8.80
2023-02-23T11:45:07.904Z,10.07
2023-02-23T11:47:41.645Z,9.83
2023-02-23T11:50:27.717Z,8.57
2023-02-23T11:53:21.620Z,11.20
2023-02-23T11:55:54.706Z,12.70
2023-02-23T11:58:49.770Z,8.87
2023-02-23T12:01:41.807Z,8.50
2023-02-23T12:04:10.268Z,8.97
2023-02-23T12:06:41.886Z,7.00
2023-02-23T12:09:28.369Z,12.60
2023-02-23T12:12:18.346Z,12.13
2023-02-23T12:15:00.244Z,12.97
2023-02-23T12:17:35.629Z,13.70
2023-02-23T12:20:24.354Z,14.27
2023-02-23T12:23:08.834Z,13.63
2023-02-23T12:25:59.850Z,16.23
2023-02-23T12:28:38.872Z,16.50
2023-02-23T12:31:42.426Z,13.50
2023-02-23T12:34:38.682Z,19.63
2023-02-23T12:37:28.186Z,15.63
2023-02-23T12:40:16.202Z,17.30
2023-02-23T12:43:13.319Z,16.17
2023-02-23T12:46:12.145Z,17.77
2023-02-23T12:49:39.591Z,18.10
2023-02-23T12:52:32.591Z,15.67
2023-02-23T12:55:00.911Z,13.33
2023-02-23T12:57:44.911Z,15.67
2023-02-23T13:00:50.616Z,14.00
2023-02-23T13:03:39.307Z,15.87
2023-02-23T13:06:30.531Z,15.60
2023-02-23T13:09:16.419Z,13.50
2023-02-23T13:12:07.350Z,10.17
2023-02-23T13:14:51.127Z,9.10
2023-02-23T13:17:55.915Z,11.57
2023-02-23T13:20:51.387Z,14.50
2023-02-23T13:26:53.288Z,10.63
2023-02-23T13:29:43.224Z,9.63
2023-02-23T13:32:19.661Z,10.77
2023-02-23T13:35:20.874Z,12.63
2023-02-23T13:37:58.009Z,14.93
2023-02-23T13:41:06.433Z,15.10
2023-02-23T13:43:49.747Z,12.53
2023-02-23T13:46:44.400Z,12.60
2023-02-23T13:49:40.247Z,11.03
2023-02-23T13:52:28.787Z,8.17
2023-02-23T13:55:03.895Z,7.37
2023-02-23T13:57:33.400Z,9.63
2023-02-23T14:00:02.249Z,8.83
2023-02-23T14:02:41.575Z,10.20
2023-02-23T14:05:44.022Z,13.23
2023-02-23T14:08:28.291Z,13.30
2023-02-23T14:10:57.383Z,10.60
2023-02-23T14:13:33.478Z,8.47
2023-02-23T14:16:13.672Z,10.97
2023-02-23T14:19:12.378Z,8.90
2023-02-23T14:21:56.152Z,11.37
2023-02-23T14:24:26.442Z,10.43
2023-02-23T14:27:13.873Z,10.97
2023-02-23T14:29:44.413Z,9.77
2023-02-23T14:32:14.828Z,10.20
2023-02-23T14:35:01.799Z,10.17
2023-02-23T14:37:40.987Z,10.13
2023-02-23T14:40:33.647Z,13.13
2023-02-23T14:43:05.358Z,8.57
2023-02-23T14:45:39.650Z,9.40
2023-02-23T14:48:18.443Z,8.17
2023-02-23T14:50:46.197Z,11.80
2023-02-23T14:53:23.726Z,12.00
2023-02-23T14:56:11.783Z,13.07
2023-02-23T14:58:39.212Z,6.97
2023-02-23T15:01:06.651Z,10.53
2023-02-23T15:03:34.897Z,8.63
2023-02-23T15:06:02.809Z,8.17
2023-02-23T15:08:32.988Z,12.47
2023-02-23T15:11:19.841Z,9.20
2023-02-23T15:13:54.885Z,9.77
2023-02-23T15:16:29.804Z,7.10
2023-02-23T15:19:01.610Z,10.37
2023-02-23T15:21:29.183Z,7.90
2023-02-23T15:24:11.086Z,10.07
2023-02-23T15:26:41.508Z,11.27
2023-02-23T15:29:14.466Z,9.63
2023-02-23T15:31:52.376Z,8.90
2023-02-23T15:34:30.497Z,9.33
2023-02-23T15:37:05.794Z,11.50
2023-02-23T15:39:48.581Z,11.57
2023-02-23T15:42:22.741Z,13.67
2023-02-23T15:45:05.823Z,11.97
2023-02-23T15:47:37.970Z,12.90
2023-02-23T15:50:16.452Z,13.80
2023-02-23T15:52:55.260Z,12.23
2023-02-23T15:55:35.438Z,12.30
2023-02-23T15:58:26.860Z,17.67
2023-02-23T16:01:20.778Z,20.47
2023-02-23T16:04:18.702Z,16.17
2023-02-23T16:06:51.080Z,18.90
2023-02-23T16:09:22.371Z,16.80
2023-02-23T16:12:04.949Z,17.63
2023-02-23T16:14:47.203Z,17.80
2023-02-23T16:17:40.213Z,14.00
2023-02-23T16:20:59.939Z,16.07
2023-02-23T16:23:37.035Z,16.20
2023-02-23T16:26:35.924Z,16.40
2023-02-23T16:29:05.528Z,19.20
2023-02-23T16:31:48.774Z,17.93
2023-02-23T16:34:37.579Z,17.67
2023-02-23T16:37:18.279Z,19.60
2023-02-23T16:39:46.136Z,21.80
2023-02-23T16:42:34.954Z,23.60
2023-02-23T16:45:02.876Z,17.80
2023-02-23T16:47:49.980Z,21.27
2023-02-23T16:50:23.148Z,13.97
2023-02-23T16:52:53.446Z,20.77
2023-02-23T16:55:27.222Z,20.13
2023-02-23T16:58:04.696Z,18.90
2023-02-23T17:00:36.264Z,17.00
2023-02-23T17:03:09.059Z,16.20
2023-02-23T17:05:44.377Z,19.43
2023-02-23T17:08:21.176Z,17.47
2023-02-23T17:10:58.390Z,23.03
2023-02-23T17:13:35.604Z,19.07
2023-02-23T17:16:12.039Z,30.57
2023-02-23T17:21:30.899Z,37.83
2023-02-23T17:24:03.911Z,16.67
2023-02-23T17:26:36.531Z,26.73
2023-02-23T17:29:10.074Z,30.77
2023-02-23T17:31:41.964Z,29.10
2023-02-23T17:34:13.109Z,48.97
2023-02-23T17:36:58.160Z,70.40
2023-02-23T17:39:28.667Z,70.70
2023-02-23T17:42:00.543Z,67.80
2023-02-23T17:44:34.085Z,40.47
2023-02-23T17:47:02.409Z,41.97
2023-02-23T17:49:34.425Z,48.60
2023-02-23T17:52:05.698Z,68.80
2023-02-23T17:54:55.580Z,64.97
2023-02-23T17:57:30.474Z,70.60
2023-02-23T18:00:01.329Z,74.20
2023-02-23T18:02:42.133Z,72.27
2023-02-23T18:05:22.234Z,68.30
2023-02-23T18:07:50.565Z,101.37
2023-02-23T18:10:18.474Z,68.70
2023-02-23T18:12:46.197Z,79.13
2023-02-23T18:15:20.926Z,29.73
2023-02-23T18:17:49.878Z,15.57
2023-02-23T18:20:18.645Z,13.57
2023-02-23T18:22:52.546Z,12.73
2023-02-23T18:25:34.354Z,12.73
2023-02-23T18:28:03.386Z,10.03
2023-02-23T18:30:32.822Z,11.07
2023-02-23T18:33:22.518Z,11.50
2023-02-23T18:35:50.698Z,9.80
2023-02-23T18:38:20.286Z,7.53
2023-02-23T18:40:48.652Z,11.47
2023-02-23T18:43:18.930Z,11.70
2023-02-23T18:45:51.989Z,7.97
2023-02-23T18:48:41.668Z,8.23
2023-02-23T18:51:19.494Z,8.13
2023-02-23T18:53:50.438Z,9.73
2023-02-23T18:56:31.246Z,8.93
2023-02-23T18:59:04.115Z,7.37
2023-02-23T19:01:40.275Z,9.37
2023-02-23T19:04:10.679Z,13.07
2023-02-23T19:06:47.708Z,9.23
2023-02-23T19:09:21.463Z,8.30
2023-02-23T19:11:53.996Z,9.97
2023-02-23T19:14:32.935Z,5.57
2023-02-23T19:17:13.304Z,7.57
2023-02-23T19:19:41.666Z,7.23
2023-02-23T19:22:12.141Z,9.90
2023-02-23T19:24:40.901Z,5.67
2023-02-23T19:27:10.064Z,7.60
2023-02-23T19:29:40.272Z,7.93
2023-02-23T19:32:11.129Z,5.10
2023-02-23T19:34:42.642Z,6.50
2023-02-23T19:37:12.160Z,5.50
2023-02-23T19:40:02.564Z,7.40
2023-02-23T19:42:33.066Z,5.87
2023-02-23T19:45:00.808Z,9.13
2023-02-23T19:47:31.959Z,5.00
2023-02-23T19:50:01.633Z,7.23
2023-02-23T19:52:30.858Z,3.90
2023-02-23T19:54:58.490Z,10.00
2023-02-23T19:57:26.100Z,6.73
2023-02-23T19:59:57.776Z,6.67
2023-02-23T20:02:29.751Z,7.60
2023-02-23T20:05:04.637Z,5.80
2023-02-23T20:07:33.427Z,9.37
2023-02-23T20:10:05.566Z,5.80
2023-02-23T20:12:36.293Z,5.43
2023-02-23T20:15:07.060Z,4.60
2023-02-23T20:17:38.817Z,4.13
2023-02-23T20:20:11.455Z,5.67
2023-02-23T20:22:45.808Z,5.13
2023-02-23T20:25:19.863Z,3.93
2023-02-23T20:27:48.959Z,4.73
2023-02-23T20:30:37.516Z,5.80
2023-02-23T20:33:11.837Z,8.63
2023-02-23T20:35:39.637Z,5.67
2023-02-23T20:38:07.266Z,5.27
2023-02-23T20:40:35.781Z,7.57
2023-02-23T20:43:04.818Z,7.13
2023-02-23T20:45:32.485Z,3.57
2023-02-23T20:48:00.327Z,5.67
2023-02-23T20:50:32.442Z,5.57
2023-02-23T20:53:02.462Z,4.53
2023-02-23T20:55:32.346Z,5.30
2023-02-23T20:58:01.589Z,5.07
2023-02-23T21:00:32.422Z,7.13
2023-02-23T21:03:03.521Z,7.23
2023-02-23T21:05:38.153Z,8.00
2023-02-23T21:08:07.773Z,8.87
2023-02-23T21:10:39.020Z,4.30
2023-02-23T21:13:10.868Z,7.20
2023-02-23T21:15:40.513Z,6.07
2023-02-23T21:18:09.817Z,6.23
2023-02-23T21:20:40.988Z,6.90
2023-02-23T21:23:08.705Z,9.60
2023-02-23T21:25:36.348Z,3.53
2023-02-23T21:28:04.298Z,6.43
2023-02-23T21:30:31.902Z,7.87
2023-02-23T21:33:00.236Z,6.53
2023-02-23T21:35:37.876Z,7.17
2023-02-23T21:38:06.182Z,7.13
2023-02-23T21:40:35.782Z,10.30
2023-02-23T21:43:10.521Z,8.67
2023-02-23T21:45:41.077Z,8.17
2023-02-23T21:48:09.107Z,7.07
2023-02-23T21:50:36.626Z,8.50
2023-02-23T21:53:04.666Z,8.33
2023-02-23T21:55:32.461Z,6.83
2023-02-23T21:57:59.998Z,7.83
2023-02-23T22:00:28.102Z,10.27
2023-02-23T22:02:55.773Z,18.57
2023-02-23T22:05:23.250Z,10.50
2023-02-23T22:07:54.814Z,17.77
2023-02-23T22:10:24.678Z,19.57
2023-02-23T22:12:57.340Z,10.50
2023-02-23T22:15:27.829Z,20.17
2023-02-23T22:17:56.793Z,20.80
2023-02-23T22:20:26.361Z,10.57
2023-02-23T22:22:53.810Z,16.30
2023-02-23T22:25:21.574Z,12.13
2023-02-23T22:27:51.628Z,18.73
2023-02-23T22:30:22.632Z,8.47
2023-02-23T22:32:50.419Z,7.50
2023-02-23T22:35:18.510Z,11.90
2023-02-23T22:37:46.328Z,11.60
2023-02-23T22:40:16.596Z,9.70
2023-02-23T22:42:50.453Z,9.90
2023-02-23T22:45:18.857Z,10.87
2023-02-23T22:47:46.606Z,18.37
2023-02-23T22:50:17.974Z,14.37
2023-02-23T22:54:26.610Z,12.27
2023-02-23T22:56:54.895Z,15.63
2023-02-23T22:59:22.964Z,17.47
2023-02-23T23:01:50.664Z,21.10
2023-02-23T23:04:19.577Z,19.87
2023-02-23T23:06:47.740Z,17.97
2023-02-23T23:09:18.143Z,9.60
2023-02-23T23:11:46.693Z,9.70
2023-02-23T23:14:14.716Z,15.00
2023-02-23T23:16:52.013Z,13.37
2023-02-23T23:19:25.003Z,20.57
2023-02-23T23:21:55.593Z,18.20
2023-02-23T23:24:25.338Z,19.47
2023-02-23T23:27:00.243Z,18.87
2023-02-23T23:29:32.626Z,18.20
2023-02-23T23:32:02.312Z,22.93
2023-02-23T23:34:33.541Z,13.90
2023-02-23T23:37:02.959Z,8.53
2023-02-23T23:39:30.669Z,12.17
2023-02-23T23:41:58.077Z,10.83
2023-02-23T23:44:29.297Z,13.03
2023-02-23T23:47:05.492Z,11.60
2023-02-23T23:49:40.132Z,15.73
2023-02-23T23:52:08.092Z,16.60
2023-02-23T23:54:39.119Z,14.53
2023-02-23T23:57:07.267Z,16.70
2023-02-23T23:59:36.082Z,18.30
